FSIAVRMM

Guest
Details From FSIA - Seychelles Intl
To VRMM - Male Intl
Flight Number -
Tags Generated
Created
Modified
Stats Distance 1,205 nm / 2,232 km
Max Altitude 0 ft / 0 m
Waypoints 3
Social Downloads 0
Likes 0
Share VATSIM

Download

Looking for another format? Having issues loading an existing format? Contact us
Advertisement - Login to hide

Notes

Generated

Route

FSIA MLE45 VRMM

ID Type Via Altitude Latitude Longitude Leg Dist Tot Dist Heading (true) Name
O FSIA APT - 0 ft / 0 m -4.66663˚ 55.51080˚ - 0 nm - -
MLE45 FIX - 0 ft / 0 m 4.13044˚ 73.41277˚ 1196 nm 1196 nm 64° / 64° -
O VRMM APT - 0 ft / 0 m 4.20629˚ 73.52889˚ 8 nm 1205 nm 57° / 57° -

Altitude Profile

Advertisement - Login to hide

Weather


0- 5 10 15 20 25 30 35+ Temperature / ° C

Clouds and Precipitation
Forecast for 2017-12-18 00:00 UTC. Updated 19 minutes ago

Ground ~20,000 ft ~40,000 ft Winds

FSIA

Details ICAO FSIA (SEZ)
Name SEYCHELLES INTL
Region Seychelles
Timezone Unknown (UTC+0.0)
Stats Elevation 10 ft / 3 m (AMSL)
Location -4.674378° 55.521829°
Runways 1
Magnetic Variation 5.043° W

METAR

FSIA 172100Z 23002KT 9999 FEW018 26/24 Q1012 NOSIG

Decode

TAF

Not found

Departure Runways

ID Width Length Bearing (true) Bearing (mag) Surface Threshold Offset Overrun Length
13 151 ft / 46 m 9,813 ft / 2,991 m 125.18° 130.22° Concrete 1,001 ft / 305 m 279 ft / 85 m
31 151 ft / 46 m 9,813 ft / 2,991 m 305.18° 310.22° Concrete 1,001 ft / 305 m 115 ft / 35 m

VRMM

Details ICAO VRMM (MLE)
Name MALE INTL
Region Maldives
Timezone Indian/Maldives (UTC+5.0)
Stats Elevation 6 ft / 2 m (AMSL)
Location 4.191832° 73.529128°
Runways 1
Magnetic Variation 2.834° W

METAR

VRMM 172100Z 36007KT 7000 -RA FEW016TCU OVC080 24/23 Q1013 TEMPO 2000 +TSRA

Decode

TAF

TAF VRMM 171700Z 1718/1824 11015KT 7000 -RA SCT017TCU TEMPO 1718/1724 09018G35KT 2000 TSRA FEW009 SCT015 FEW016CB OVC080

Decode

Destination Runways

ID Width Length Bearing (true) Bearing (mag) Surface Threshold Offset Overrun Length
18 148 ft / 45 m 10,556 ft / 3,218 m 179.06° 181.89° Asphalt 328 ft / 100 m 201 ft / 61 m
36 148 ft / 45 m 10,556 ft / 3,218 m 359.06° 1.89° Asphalt 952 ft / 290 m 238 ft / 73 m

Approach Navaids

Runway Type Ident Frequency Range Bearing (true) Bearing (mag) Slope Elevation
36 Localiser IML 108.70 MHz 18 nm / 33 km 359.58° 2.41° - 5 ft / 2 m (AMSL)
36 Glidescope IML 108.70 MHz 10 nm / 19 km 359.06° 1.89° 3.00° 5 ft / 2 m (AMSL)
36 DME IML 108.70 MHz 18 nm / 33 km - - - 22 ft / 7 m (AMSL)

Popular Alternatives